Skip Navigation LinksHome page > Weather > Current weather Skip Navigation Links

Current Weather

Illinois Valley Rgnl-Walter A Duncan Field, Peru, Ill.

For information only: do not use for flight planning or navigation.
Latest weather
Observation time Friday, April 3, 2020 12:35 PM CDT
Local time Friday, April 3, 2020 12:47 PM CDT
Flight conditions Visual Meteorological Conditions
Winds
Wind direction South-Southeast (160°)
Wind speed 9 mph
Visibility 10 mi.
Sky condition
Ceiling unlimited
Cloud layer scattered clouds 10,000 ft.
Temperature 65°F
Dewpoint 46°F
Altimeter 30.01 in.Hg
Derived measurements
Relative humidity 51%
Density altitude 1094 ft.
Remarks
Fully automated report.
Automated weather observing station with precipitation discriminator.
METAR KVYS 031735Z AUTO 16008KT 10SM SCT100 18/08 A3001 RMK AO2 T01830079

Settings

Location code

InnerDrive.Weather 4.0.6770.0 Release CLR 4.0.30319.42000
Copyright ©2018 Inner Drive Technology. All rights reserved. Portions Copyright ©1986-2018 David Braverman.

Find weather

Site navigation


Skip Navigation Links

Place info

Page info

PayPal - The safer, easier way to pay online!

Return home.

Copyright ©2020 Inner Drive Technology. Purveyors of fine, hand-crafted computer software. Page printed 2020-04-03T17:47:41 UTC.